Time;durP1;ratioP1;P1;durP2;ratioP2;P2;SDS_P1;SDS_P2;PMS_P1;PMS_P2;Temp;Humidity;BMP_temperature;BMP_pressure;BME280_temperature;BME280_humidity;BME280_pressure;Samples;Min_cycle;Max_cycle;Signal;HPM_P1;HPM_P2
2022/04/03 00:00:45;;;;;;;10.02;8.07;;;2.90;1.00;;;;;;5071337;28;20029;-86
2022/04/03 00:03:11;;;;;;;8.57;7.70;;;2.60;1.00;;;;;;5068758;28;20036;-86
2022/04/03 00:05:43;;;;;;;9.70;8.70;;;2.30;1.00;;;;;;5069268;28;20036;-86
2022/04/03 00:08:09;;;;;;;8.45;7.53;;;2.40;1.00;;;;;;5069559;28;20185;-86
2022/04/03 00:10:36;;;;;;;8.93;7.85;;;2.40;1.00;;;;;;5054616;28;20044;-86
2022/04/03 00:13:02;;;;;;;9.68;7.72;;;2.30;1.00;;;;;;5071755;28;20396;-86
2022/04/03 00:15:28;;;;;;;17.58;10.55;;;2.40;1.00;;;;;;5069460;28;20615;-86
2022/04/03 00:17:54;;;;;;;9.13;8.23;;;2.50;1.00;;;;;;5069235;28;20115;-86
2022/04/03 00:20:20;;;;;;;9.30;8.15;;;2.50;1.00;;;;;;5069552;28;20028;-86
2022/04/03 00:22:48;;;;;;;10.43;8.18;;;2.50;1.00;;;;;;5069096;28;20037;-86
2022/04/03 00:25:18;;;;;;;8.52;7.63;;;2.30;1.00;;;;;;5071019;28;20416;-86
2022/04/03 00:27:44;;;;;;;11.82;8.85;;;2.50;1.00;;;;;;5070796;28;20028;-86
2022/04/03 00:30:10;;;;;;;11.13;8.45;;;2.90;1.00;;;;;;5067312;28;20496;-86
2022/04/03 00:32:36;;;;;;;11.73;9.25;;;2.60;1.00;;;;;;5067680;28;20105;-86
2022/04/03 00:35:03;;;;;;;10.40;8.63;;;2.50;1.00;;;;;;5069219;28;20044;-86
2022/04/03 00:37:28;;;;;;;10.50;8.15;;;2.40;1.00;;;;;;5069691;28;20030;-86
2022/04/03 00:39:55;;;;;;;8.27;7.35;;;2.40;1.00;;;;;;5071433;28;20033;-86
2022/04/03 00:42:21;;;;;;;9.02;7.75;;;2.60;1.00;;;;;;5069221;28;20033;-86
2022/04/03 00:44:47;;;;;;;8.55;7.65;;;2.50;1.00;;;;;;5068812;28;20036;-86
2022/04/03 00:47:16;;;;;;;9.63;7.70;;;2.40;1.00;;;;;;5069099;28;20040;-86
2022/04/03 00:49:41;;;;;;;9.30;8.38;;;2.20;1.00;;;;;;5069234;28;20053;-86
2022/04/03 00:52:08;;;;;;;8.80;7.47;;;2.20;1.00;;;;;;5073428;28;20563;-86
2022/04/03 00:54:34;;;;;;;9.50;8.27;;;2.30;1.00;;;;;;5073360;28;20496;-86
2022/04/03 00:57:02;;;;;;;8.95;7.75;;;2.40;1.00;;;;;;5073206;28;20041;-86
2022/04/03 00:59:28;;;;;;;8.20;7.40;;;2.20;1.00;;;;;;5073221;28;20111;-86
2022/04/03 01:01:54;;;;;;;9.45;8.20;;;2.30;1.00;;;;;;5072845;28;20028;-86
2022/04/03 01:04:19;;;;;;;8.45;7.55;;;2.50;1.00;;;;;;5073472;28;20032;-86
2022/04/03 01:06:45;;;;;;;8.50;7.60;;;2.40;1.00;;;;;;5074320;28;20052;-86
2022/04/03 01:09:11;;;;;;;8.32;7.47;;;2.40;1.00;;;;;;5072087;28;20024;-86
2022/04/03 01:11:38;;;;;;;8.38;7.20;;;2.40;1.00;;;;;;5071112;28;20032;-86
2022/04/03 01:14:05;;;;;;;8.00;7.20;;;2.40;1.00;;;;;;5072438;28;20120;-86
2022/04/03 01:16:31;;;;;;;8.70;7.50;;;2.50;1.00;;;;;;5072643;28;20056;-86
2022/04/03 01:18:57;;;;;;;7.97;7.18;;;2.50;1.00;;;;;;5074612;28;20024;-86
2022/04/03 01:21:23;;;;;;;8.40;7.10;;;2.50;1.00;;;;;;5072430;28;20370;-86
2022/04/03 01:23:50;;;;;;;8.43;7.53;;;2.60;1.00;;;;;;5072780;28;20031;-86
2022/04/03 01:26:16;;;;;;;8.73;7.68;;;2.50;1.00;;;;;;5072586;28;20028;-86
2022/04/03 01:28:42;;;;;;;9.23;7.60;;;2.60;1.00;;;;;;5072237;28;20563;-86
2022/04/03 01:31:08;;;;;;;8.30;7.35;;;2.50;1.00;;;;;;5074267;28;20093;-86
2022/04/03 01:33:34;;;;;;;8.63;7.78;;;2.50;1.00;;;;;;5073183;28;20012;-86
2022/04/03 01:35:59;;;;;;;8.30;7.35;;;2.50;1.00;;;;;;5072482;28;20178;-86
2022/04/03 01:38:25;;;;;;;8.73;7.40;;;2.50;1.00;;;;;;5072709;28;20021;-86
2022/04/03 01:40:51;;;;;;;9.13;7.53;;;2.30;1.00;;;;;;5071889;28;20066;-86
2022/04/03 01:43:17;;;;;;;8.35;7.22;;;2.50;1.00;;;;;;5073294;28;20524;-86
2022/04/03 01:45:42;;;;;;;9.43;7.70;;;2.80;1.00;;;;;;5073328;28;20443;-86
2022/04/03 01:48:09;;;;;;;8.63;7.68;;;2.50;1.00;;;;;;5070262;28;20059;-86
2022/04/03 01:50:34;;;;;;;8.38;7.57;;;2.50;1.00;;;;;;5070802;28;20477;-86
2022/04/03 01:53:00;;;;;;;9.70;7.93;;;2.30;1.00;;;;;;5071953;28;20046;-86
2022/04/03 01:55:26;;;;;;;10.02;8.65;;;2.30;1.00;;;;;;5071975;28;20027;-86
2022/04/03 01:57:53;;;;;;;9.52;8.13;;;2.40;1.00;;;;;;5074065;28;20063;-86
2022/04/03 02:00:21;;;;;;;9.48;7.88;;;2.30;1.00;;;;;;5071823;28;20058;-86
2022/04/03 02:02:47;;;;;;;9.32;8.30;;;2.40;1.00;;;;;;5071929;28;20028;-86
2022/04/03 02:05:12;;;;;;;11.55;8.52;;;2.30;1.00;;;;;;5071934;28;20484;-86
2022/04/03 02:07:38;;;;;;;9.70;8.70;;;2.30;1.00;;;;;;5071745;28;20041;-86
2022/04/03 02:10:08;;;;;;;10.10;8.63;;;2.30;1.00;;;;;;5073387;28;20074;-86
2022/04/03 02:12:35;;;;;;;10.23;8.63;;;2.30;1.00;;;;;;5070700;28;20036;-86
2022/04/03 02:15:01;;;;;;;10.05;9.05;;;2.20;1.00;;;;;;5071896;28;20025;-86
2022/04/03 02:17:27;;;;;;;10.68;8.60;;;2.10;1.00;;;;;;5071816;28;20507;-86
2022/04/03 02:19:53;;;;;;;10.18;9.07;;;2.30;1.00;;;;;;5071555;28;20102;-86
2022/04/03 02:22:18;;;;;;;10.32;9.23;;;2.40;1.00;;;;;;5071839;28;20026;-85
2022/04/03 02:24:44;;;;;;;11.32;9.02;;;2.70;1.00;;;;;;5073204;28;20024;-85
2022/04/03 02:27:09;;;;;;;10.60;9.02;;;2.60;1.00;;;;;;5069570;28;20054;-86
2022/04/03 02:29:35;;;;;;;12.35;9.68;;;2.40;1.00;;;;;;5069855;28;20038;-85
2022/04/03 02:32:01;;;;;;;11.00;9.80;;;2.40;1.00;;;;;;5071679;28;20036;-86
2022/04/03 02:34:27;;;;;;;10.30;9.18;;;2.40;1.00;;;;;;5071492;28;20029;-86
2022/04/03 02:36:52;;;;;;;12.00;10.13;;;2.50;1.00;;;;;;5073154;28;20032;-85
2022/04/03 02:39:18;;;;;;;10.43;9.18;;;2.50;1.00;;;;;;5070682;28;20115;-85
2022/04/03 02:41:44;;;;;;;12.82;9.88;;;2.40;1.00;;;;;;5070840;28;20024;-86
2022/04/03 02:44:10;;;;;;;11.25;9.30;;;2.50;1.00;;;;;;5071423;28;20404;-86
2022/04/03 02:46:36;;;;;;;11.60;10.13;;;2.40;1.00;;;;;;5071414;28;20032;-86
2022/04/03 02:49:02;;;;;;;10.88;9.77;;;2.40;1.00;;;;;;5072804;28;20028;-85
2022/04/03 02:51:28;;;;;;;10.68;9.40;;;2.30;1.00;;;;;;5070706;28;20063;-85
2022/04/03 02:53:54;;;;;;;10.98;9.40;;;2.30;1.00;;;;;;5070533;28;20056;-85
2022/04/03 02:56:19;;;;;;;12.00;9.88;;;2.40;1.00;;;;;;5071065;28;20025;-86
2022/04/03 02:58:45;;;;;;;12.02;9.73;;;2.30;1.00;;;;;;5071014;28;20029;-86
2022/04/03 03:01:11;;;;;;;11.15;9.48;;;2.40;1.00;;;;;;5071918;28;20034;-86
2022/04/03 03:03:37;;;;;;;11.32;9.43;;;2.50;1.00;;;;;;5071551;28;20063;-86
2022/04/03 03:06:03;;;;;;;11.90;9.38;;;2.40;1.00;;;;;;5068963;28;20025;-86
2022/04/03 03:08:28;;;;;;;10.55;9.38;;;2.40;1.00;;;;;;5068530;28;20040;-86
2022/04/03 03:10:54;;;;;;;10.70;9.45;;;2.20;1.00;;;;;;5070821;28;20373;-85
2022/04/03 03:13:20;;;;;;;11.95;9.85;;;2.20;1.00;;;;;;5070645;28;20032;-86
2022/04/03 03:15:45;;;;;;;11.50;9.43;;;2.10;1.00;;;;;;5072121;28;20490;-86
2022/04/03 03:18:11;;;;;;;11.00;9.52;;;2.20;1.00;;;;;;5069954;28;20039;-85
2022/04/03 03:20:36;;;;;;;12.52;10.55;;;2.40;1.00;;;;;;5070478;28;20035;-86
2022/04/03 03:23:02;;;;;;;12.43;10.50;;;2.40;1.00;;;;;;5069811;28;20024;-86
2022/04/03 03:25:29;;;;;;;12.15;10.75;;;2.40;1.00;;;;;;5070650;28;20370;-85
2022/04/03 03:27:55;;;;;;;11.10;9.90;;;2.40;1.00;;;;;;5071712;28;20044;-86
2022/04/03 03:30:21;;;;;;;11.38;9.82;;;2.40;1.00;;;;;;5069614;28;20033;-86
2022/04/03 03:32:47;;;;;;;11.52;9.60;;;2.40;1.00;;;;;;5069419;28;20468;-86
2022/04/03 03:35:13;;;;;;;12.15;9.75;;;2.30;1.00;;;;;;5068887;28;20032;-85
2022/04/03 03:37:39;;;;;;;12.65;10.27;;;2.20;1.00;;;;;;5069858;28;20029;-85
2022/04/03 03:40:06;;;;;;;13.18;10.35;;;2.40;1.00;;;;;;5071723;28;20024;-85
2022/04/03 03:42:33;;;;;;;13.13;11.00;;;2.40;1.00;;;;;;5068351;28;20102;-85
2022/04/03 03:44:59;;;;;;;12.18;10.85;;;2.40;1.00;;;;;;5068473;28;20024;-85
2022/04/03 03:47:25;;;;;;;12.88;10.82;;;2.30;1.00;;;;;;5068136;28;20500;-86
2022/04/03 03:49:51;;;;;;;14.20;10.98;;;2.50;1.00;;;;;;5069845;28;20396;-85
2022/04/03 03:52:17;;;;;;;13.45;11.35;;;2.40;1.00;;;;;;5068728;28;20035;-85
2022/04/03 03:54:44;;;;;;;12.07;10.32;;;2.30;1.00;;;;;;5071672;28;20445;-86
2022/04/03 03:57:10;;;;;;;12.82;10.68;;;2.30;1.00;;;;;;5069940;28;20111;-86
2022/04/03 03:59:36;;;;;;;13.60;11.23;;;2.20;1.00;;;;;;5069583;28;20186;-85
2022/04/03 04:02:02;;;;;;;11.35;9.82;;;2.30;1.00;;;;;;5069589;28;20021;-85
2022/04/03 04:04:29;;;;;;;12.80;10.88;;;2.30;1.00;;;;;;5070087;28;20378;-85
2022/04/03 04:06:55;;;;;;;11.65;10.45;;;2.10;1.00;;;;;;5071707;28;20178;-85
2022/04/03 04:09:21;;;;;;;15.35;11.57;;;2.10;1.00;;;;;;5069561;28;20039;-85
2022/04/03 04:11:46;;;;;;;13.55;11.15;;;2.20;1.00;;;;;;5069514;28;20025;-85
2022/04/03 04:14:12;;;;;;;14.35;11.57;;;2.20;1.00;;;;;;5069742;28;20030;-85
2022/04/03 04:16:38;;;;;;;12.48;10.85;;;2.40;1.00;;;;;;5070133;28;20028;-85
2022/04/03 04:19:06;;;;;;;15.45;11.70;;;2.40;1.00;;;;;;5070431;28;20052;-85
2022/04/03 04:21:32;;;;;;;12.73;11.10;;;2.30;1.00;;;;;;5067654;28;20025;-86
2022/04/03 04:23:58;;;;;;;12.27;10.88;;;2.20;1.00;;;;;;5067733;28;20032;-85
2022/04/03 04:26:25;;;;;;;13.25;11.07;;;2.10;1.00;;;;;;5068095;28;20100;-86
2022/04/03 04:28:51;;;;;;;13.65;11.80;;;2.10;1.00;;;;;;5069660;28;20485;-85
2022/04/03 04:31:17;;;;;;;12.18;10.88;;;2.10;1.00;;;;;;5070243;28;20031;-85
2022/04/03 04:33:43;;;;;;;13.32;10.90;;;2.30;1.00;;;;;;5070884;28;20035;-85
2022/04/03 04:36:09;;;;;;;12.52;11.13;;;2.10;1.00;;;;;;5068683;28;20028;-86
2022/04/03 04:38:35;;;;;;;12.73;11.23;;;2.30;1.00;;;;;;5069154;28;20070;-85
2022/04/03 04:41:00;;;;;;;13.15;11.63;;;2.30;1.00;;;;;;5069549;28;20385;-86
2022/04/03 04:43:26;;;;;;;13.10;11.60;;;2.30;1.00;;;;;;5069599;28;20040;-85
2022/04/03 04:45:51;;;;;;;12.30;11.00;;;2.30;1.00;;;;;;5071120;28;20099;-85
2022/04/03 04:48:17;;;;;;;13.50;11.20;;;2.20;1.00;;;;;;5067954;28;20033;-86
2022/04/03 04:50:43;;;;;;;13.85;11.07;;;2.20;1.00;;;;;;5068469;28;20020;-85
2022/04/03 04:53:08;;;;;;;12.38;11.00;;;2.20;1.00;;;;;;5069141;28;20382;-85
2022/04/03 04:55:34;;;;;;;12.43;11.13;;;2.00;1.00;;;;;;5068900;28;20029;-85
2022/04/03 04:57:59;;;;;;;12.80;11.23;;;2.10;1.00;;;;;;5072248;28;20016;-86
2022/04/03 05:00:30;;;;;;;13.48;11.80;;;2.20;1.00;;;;;;5069160;28;20051;-86
2022/04/03 05:02:56;;;;;;;14.15;11.38;;;2.10;1.00;;;;;;5067689;28;20459;-86
2022/04/03 05:05:26;;;;;;;12.82;11.02;;;2.30;1.00;;;;;;5067165;28;20096;-87
2022/04/03 05:07:55;;;;;;;14.48;11.85;;;2.40;1.00;;;;;;5068893;28;20090;-85
2022/04/03 05:10:22;;;;;;;12.30;11.00;;;2.30;1.00;;;;;;5069421;28;20024;-86
2022/04/03 05:12:48;;;;;;;13.27;11.50;;;2.10;1.00;;;;;;5068591;28;20036;-86
2022/04/03 05:15:14;;;;;;;12.27;10.98;;;2.20;1.00;;;;;;5069363;28;20036;-86
2022/04/03 05:17:42;;;;;;;13.10;11.30;;;2.40;1.00;;;;;;5068731;28;20036;-85
2022/04/03 05:20:09;;;;;;;13.05;11.65;;;2.30;1.00;;;;;;5069022;28;20071;-86
2022/04/03 05:22:35;;;;;;;12.13;10.85;;;2.30;1.00;;;;;;5068950;28;20076;-86
2022/04/03 05:25:04;;;;;;;13.55;11.57;;;2.40;1.00;;;;;;5071153;28;20032;-85
2022/04/03 05:27:31;;;;;;;14.00;12.20;;;2.40;1.00;;;;;;5069064;28;20044;-86
2022/04/03 05:29:57;;;;;;;14.40;11.95;;;2.10;1.00;;;;;;5068460;28;20048;-85
2022/04/03 05:32:30;;;;;;;13.38;11.70;;;2.20;1.00;;;;;;5068365;28;20024;-86
2022/04/03 05:34:56;;;;;;;15.57;12.00;;;2.20;1.00;;;;;;5068107;28;20052;-86
2022/04/03 05:37:23;;;;;;;15.82;11.82;;;2.20;1.00;;;;;;5070090;28;20407;-86
2022/04/03 05:39:51;;;;;;;14.90;12.40;;;1.90;1.00;;;;;;5074570;28;20025;-86
2022/04/03 05:42:17;;;;;;;14.38;12.57;;;1.90;1.00;;;;;;5070719;28;20047;-85
2022/04/03 05:44:43;;;;;;;13.93;12.43;;;2.00;1.00;;;;;;5070634;28;20028;-86
2022/04/03 05:47:08;;;;;;;13.63;11.82;;;2.10;1.00;;;;;;5072298;28;20058;-85
2022/04/03 05:49:34;;;;;;;14.40;12.18;;;2.00;1.00;;;;;;5071942;28;20017;-85
2022/04/03 05:52:00;;;;;;;15.82;12.88;;;2.20;1.00;;;;;;5073828;28;20039;-85
2022/04/03 05:54:25;;;;;;;14.50;12.20;;;2.10;1.00;;;;;;5072128;28;20105;-86
2022/04/03 05:56:51;;;;;;;14.77;12.23;;;2.00;1.00;;;;;;5070594;28;20024;-87
2022/04/03 05:59:19;;;;;;;15.35;12.02;;;2.10;1.00;;;;;;5069351;28;20119;-86
2022/04/03 06:01:46;;;;;;;14.48;11.90;;;2.40;1.00;;;;;;5071932;28;20487;-89
2022/04/03 06:04:11;;;;;;;14.57;12.60;;;2.60;1.00;;;;;;5074063;28;20059;-89
2022/04/03 06:06:37;;;;;;;15.18;12.38;;;2.60;1.00;;;;;;5072362;28;20071;-87
2022/04/03 06:09:04;;;;;;;13.90;12.05;;;2.70;1.00;;;;;;5071517;28;20043;-88
2022/04/03 06:11:29;;;;;;;14.93;13.10;;;2.80;1.00;;;;;;5071903;28;20021;-87
2022/04/03 06:13:55;;;;;;;15.13;12.63;;;2.90;1.00;;;;;;5072100;28;20237;-87
2022/04/03 06:16:20;;;;;;;16.35;12.43;;;2.90;1.00;;;;;;5071402;28;20013;-87
2022/04/03 06:18:46;;;;;;;14.20;12.27;;;2.80;1.00;;;;;;5073335;28;20031;-87
2022/04/03 06:21:12;;;;;;;16.48;13.13;;;2.60;1.00;;;;;;5069751;28;20405;-87
2022/04/03 06:23:37;;;;;;;14.07;12.52;;;2.70;1.00;;;;;;5070295;28;20028;-87
2022/04/03 06:26:03;;;;;;;14.45;12.50;;;2.70;1.00;;;;;;5071843;28;20030;-87
2022/04/03 06:28:29;;;;;;;15.73;13.20;;;2.50;1.00;;;;;;5071062;28;20049;-88
2022/04/03 06:30:56;;;;;;;14.73;12.52;;;2.50;1.00;;;;;;5073218;28;20473;-87
2022/04/03 06:33:23;;;;;;;16.45;12.60;;;2.60;1.00;;;;;;5071187;28;20041;-88
2022/04/03 06:35:49;;;;;;;16.35;13.18;;;2.60;1.00;;;;;;5071468;28;20044;-87
2022/04/03 06:38:16;;;;;;;16.13;13.60;;;2.60;1.00;;;;;;5071077;28;20111;-87
2022/04/03 06:40:51;;;;;;;14.73;13.10;;;2.80;1.00;;;;;;5071195;28;20029;-87
2022/04/03 06:43:22;;;;;;;14.85;12.45;;;2.90;1.00;;;;;;5072126;28;20447;-88
2022/04/03 06:45:48;;;;;;;18.08;14.85;;;2.80;1.00;;;;;;5070722;28;20025;-88
2022/04/03 06:48:15;;;;;;;16.95;13.23;;;2.90;1.00;;;;;;5070086;28;20040;-88
2022/04/03 06:50:41;;;;;;;15.63;12.85;;;2.80;1.00;;;;;;5070773;28;20099;-87
2022/04/03 06:53:06;;;;;;;77.68;43.10;;;3.00;1.00;;;;;;5071097;28;20476;-87
2022/04/03 06:55:32;;;;;;;161.85;94.15;;;2.90;1.00;;;;;;5071176;28;20074;-87
2022/04/03 06:57:57;;;;;;;21.40;18.40;;;2.90;1.00;;;;;;5072736;28;20036;-88
2022/04/03 07:00:23;;;;;;;30.88;25.73;;;2.90;1.00;;;;;;5068717;28;20375;-88
2022/04/03 07:02:49;;;;;;;28.88;23.00;;;2.90;1.00;;;;;;5070823;28;20039;-87
2022/04/03 07:05:15;;;;;;;23.33;18.45;;;3.00;1.00;;;;;;5070554;28;20028;-88
2022/04/03 07:07:41;;;;;;;94.63;58.60;;;3.00;1.00;;;;;;5070933;28;20508;-88
2022/04/03 07:10:08;;;;;;;27.17;20.42;;;3.00;1.00;;;;;;5072737;28;20027;-88
2022/04/03 07:12:33;;;;;;;16.45;13.18;;;3.10;1.00;;;;;;5070756;28;20036;-88
2022/04/03 07:14:59;;;;;;;20.80;16.38;;;3.20;1.00;;;;;;5070286;28;20572;-88
2022/04/03 07:17:24;;;;;;;17.35;14.20;;;3.10;1.00;;;;;;5070306;28;20058;-87
2022/04/03 07:19:50;;;;;;;18.33;14.45;;;3.60;1.00;;;;;;5070707;28;20024;-88
2022/04/03 07:22:16;;;;;;;16.45;14.10;;;3.40;1.00;;;;;;5071276;28;20031;-88
2022/04/03 07:24:41;;;;;;;72.40;53.42;;;3.40;1.00;;;;;;5071631;28;20034;-88
2022/04/03 07:27:08;;;;;;;31.98;25.67;;;3.60;1.00;;;;;;5070021;28;20420;-87
2022/04/03 07:29:34;;;;;;;24.17;18.80;;;3.70;1.00;;;;;;5070214;28;20049;-88
2022/04/03 07:32:00;;;;;;;25.80;20.70;;;3.80;1.00;;;;;;5070160;28;20033;-88
2022/04/03 07:34:25;;;;;;;17.40;14.68;;;3.80;1.00;;;;;;5070177;28;20112;-88
2022/04/03 07:36:51;;;;;;;48.42;36.50;;;3.80;1.00;;;;;;5072074;28;20028;-88
2022/04/03 07:39:17;;;;;;;30.65;23.42;;;3.70;1.00;;;;;;5068488;28;20075;-88
2022/04/03 07:41:42;;;;;;;15.93;13.23;;;3.60;1.00;;;;;;5068423;28;20056;-87
2022/04/03 07:44:09;;;;;;;22.52;17.20;;;3.90;1.00;;;;;;5069946;28;20547;-88
2022/04/03 07:46:35;;;;;;;47.30;31.77;;;4.00;1.00;;;;;;5068892;28;20071;-88
2022/04/03 07:49:01;;;;;;;16.23;13.18;;;4.10;1.00;;;;;;5072001;28;20029;-87
2022/04/03 07:51:27;;;;;;;15.68;12.60;;;4.10;1.00;;;;;;5070085;28;20033;-88
2022/04/03 07:53:54;;;;;;;18.77;15.48;;;4.30;1.00;;;;;;5069587;28;20032;-87
2022/04/03 07:56:20;;;;;;;16.45;13.05;;;4.30;1.00;;;;;;5069527;28;20028;-88
2022/04/03 07:58:45;;;;;;;16.80;13.55;;;4.60;1.00;;;;;;5069721;28;20028;-87
2022/04/03 08:01:11;;;;;;;14.38;12.82;;;5.00;1.00;;;;;;5070973;28;20487;-88
2022/04/03 08:03:36;;;;;;;22.33;18.20;;;4.90;1.00;;;;;;5070440;28;20105;-88
2022/04/03 08:06:02;;;;;;;17.40;14.27;;;5.00;1.00;;;;;;5069494;28;20266;-87
2022/04/03 08:08:28;;;;;;;15.77;13.68;;;4.90;1.00;;;;;;5069492;28;20036;-88
2022/04/03 08:10:54;;;;;;;43.17;30.48;;;5.20;1.00;;;;;;5069418;28;20043;-88
2022/04/03 08:13:22;;;;;;;22.00;17.10;;;5.30;1.00;;;;;;5069638;28;20027;-87
2022/04/03 08:15:48;;;;;;;15.85;13.85;;;5.20;1.00;;;;;;5069411;28;20016;-88
2022/04/03 08:18:14;;;;;;;14.82;13.23;;;5.30;1.00;;;;;;5067851;28;20033;-88
2022/04/03 08:20:40;;;;;;;14.60;11.85;;;5.10;1.00;;;;;;5068312;28;20025;-88
2022/04/03 08:23:05;;;;;;;14.65;12.52;;;5.00;1.00;;;;;;5069419;28;20112;-88
2022/04/03 08:25:33;;;;;;;14.13;12.60;;;4.90;1.00;;;;;;5069663;28;20035;-88
2022/04/03 08:28:00;;;;;;;16.05;13.02;;;4.90;1.00;;;;;;5071111;28;20052;-87
2022/04/03 08:30:31;;;;;;;14.88;12.18;;;5.20;1.00;;;;;;5069178;28;20116;-88
2022/04/03 08:32:57;;;;;;;13.27;11.88;;;5.30;1.00;;;;;;5069183;28;20028;-88
2022/04/03 08:35:26;;;;;;;15.80;13.60;;;5.40;1.00;;;;;;5069670;28;20033;-87
2022/04/03 08:37:52;;;;;;;15.57;13.98;;;5.30;1.00;;;;;;5068813;28;20039;-87
2022/04/03 08:40:19;;;;;;;13.18;11.80;;;5.20;1.00;;;;;;5070384;28;20036;-87
2022/04/03 08:42:45;;;;;;;15.40;13.05;;;5.20;1.00;;;;;;5070832;28;20028;-88
2022/04/03 08:45:11;;;;;;;14.18;12.73;;;5.60;1.00;;;;;;5069181;28;20413;-87
2022/04/03 08:47:43;;;;;;;14.25;12.55;;;5.50;1.00;;;;;;5069197;28;20029;-88
2022/04/03 08:50:10;;;;;;;14.90;11.85;;;5.50;1.00;;;;;;5069207;28;20032;-87
2022/04/03 08:52:37;;;;;;;16.95;15.18;;;5.60;1.00;;;;;;5053212;28;20021;-88
2022/04/03 08:55:04;;;;;;;14.18;12.07;;;5.20;1.00;;;;;;5071411;28;20075;-87
2022/04/03 08:57:30;;;;;;;13.50;12.05;;;5.40;1.00;;;;;;5067100;28;20021;-87
2022/04/03 08:59:56;;;;;;;14.98;13.48;;;5.40;1.00;;;;;;5067570;28;20120;-88
2022/04/03 09:02:22;;;;;;;12.40;11.10;;;5.40;1.00;;;;;;5068900;28;20029;-88
2022/04/03 09:04:48;;;;;;;12.98;11.68;;;5.70;1.00;;;;;;5069686;28;20032;-87
2022/04/03 09:07:18;;;;;;;19.58;16.08;;;6.10;1.00;;;;;;5070288;28;20040;-88
2022/04/03 09:09:44;;;;;;;12.93;11.10;;;5.60;1.00;;;;;;5069988;28;20041;-87
2022/04/03 09:12:16;;;;;;;23.88;18.75;;;5.60;1.00;;;;;;5069394;28;20036;-88
2022/04/03 09:14:53;;;;;;;17.80;14.13;;;6.10;1.00;;;;;;5072795;28;20384;-88
2022/04/03 09:17:42;;;;;;;19.40;15.18;;;6.00;1.00;;;;;;5073038;28;20039;-88
2022/04/03 09:20:22;;;;;;;16.02;13.00;;;6.00;1.00;;;;;;5072581;28;20032;-88
2022/04/03 09:22:58;;;;;;;15.50;13.23;;;5.90;1.00;;;;;;5058723;28;20062;-88
2022/04/03 09:25:29;;;;;;;35.13;24.55;;;5.90;1.00;;;;;;5072202;28;20028;-87
2022/04/03 09:28:00;;;;;;;21.50;15.40;;;5.80;1.00;;;;;;5074388;28;20056;-88
2022/04/03 09:30:42;;;;;;;22.05;15.57;;;6.00;1.00;;;;;;5072300;28;20039;-88
2022/04/03 09:33:10;;;;;;;37.13;23.13;;;6.20;1.00;;;;;;5072354;28;20097;-87
2022/04/03 09:36:01;;;;;;;13.07;11.23;;;6.40;1.00;;;;;;5070500;28;20020;-87
2022/04/03 09:38:28;;;;;;;13.13;11.65;;;6.50;1.00;;;;;;5070825;28;20059;-88
2022/04/03 09:40:54;;;;;;;37.22;24.25;;;6.50;1.00;;;;;;5072489;28;20035;-88
2022/04/03 09:43:23;;;;;;;15.55;12.45;;;6.20;1.00;;;;;;5072431;28;20098;-87
2022/04/03 09:45:54;;;;;;;13.18;11.35;;;6.40;1.00;;;;;;5072168;28;20048;-88
2022/04/03 09:48:28;;;;;;;11.98;10.63;;;6.80;1.00;;;;;;5071829;28;20040;-88
2022/04/03 09:51:00;;;;;;;11.82;10.55;;;7.20;1.00;;;;;;5072516;28;20025;-88
2022/04/03 09:53:28;;;;;;;25.92;16.90;;;7.70;1.00;;;;;;5070140;28;20491;-88
2022/04/03 09:55:54;;;;;;;62.00;32.17;;;7.40;1.00;;;;;;5071599;28;20047;-87
2022/04/03 09:58:20;;;;;;;18.55;12.85;;;7.10;1.00;;;;;;5072578;28;20154;-88
2022/04/03 10:00:45;;;;;;;27.17;18.20;;;6.60;1.00;;;;;;5073379;28;20029;-88
2022/04/03 10:03:12;;;;;;;16.95;13.00;;;7.00;1.00;;;;;;5071782;28;20024;-88
2022/04/03 10:05:39;;;;;;;69.95;33.05;;;7.30;1.00;;;;;;5071855;28;20431;-88
2022/04/03 10:08:05;;;;;;;14.20;11.40;;;7.70;1.00;;;;;;5072011;28;20079;-89
2022/04/03 10:10:35;;;;;;;22.60;14.77;;;8.70;1.00;;;;;;5071668;28;20033;-88
2022/04/03 10:13:02;;;;;;;25.02;19.02;;;9.20;1.00;;;;;;5073750;28;20033;-88
2022/04/03 10:15:28;;;;;;;15.98;12.95;;;8.60;1.00;;;;;;5070251;28;20380;-88
2022/04/03 10:17:55;;;;;;;24.20;17.83;;;8.20;1.00;;;;;;5070348;28;20036;-88
2022/04/03 10:20:26;;;;;;;37.42;25.92;;;7.70;1.00;;;;;;5071291;28;20032;-87
2022/04/03 10:22:56;;;;;;;11.32;10.13;;;7.90;1.00;;;;;;5071313;28;20074;-87
2022/04/03 10:25:28;;;;;;;11.20;10.00;;;7.70;1.00;;;;;;5072201;28;20141;-87
2022/04/03 10:27:58;;;;;;;9.45;8.55;;;7.80;1.00;;;;;;5071909;28;20044;-87
2022/04/03 10:30:34;;;;;;;10.88;9.77;;;7.80;1.00;;;;;;5071118;28;20082;-88
2022/04/03 10:33:00;;;;;;;14.40;12.65;;;7.50;1.00;;;;;;5071159;28;20408;-87
2022/04/03 10:35:26;;;;;;;10.30;9.27;;;7.50;1.00;;;;;;5071657;28;20032;-87
2022/04/03 10:38:03;;;;;;;19.35;14.48;;;7.60;1.00;;;;;;5071328;28;20411;-87
2022/04/03 10:40:34;;;;;;;10.48;9.48;;;7.70;1.00;;;;;;5071018;28;20064;-87
2022/04/03 10:43:06;;;;;;;13.65;11.07;;;7.50;1.00;;;;;;5073353;28;20553;-87
2022/04/03 10:45:35;;;;;;;34.72;22.70;;;7.60;1.00;;;;;;5070951;28;20392;-86
2022/04/03 10:48:19;;;;;;;13.00;11.18;;;7.40;1.00;;;;;;5071095;28;20131;-87
2022/04/03 10:51:00;;;;;;;19.40;15.10;;;7.40;1.00;;;;;;5071245;28;20044;-87
2022/04/03 10:53:30;;;;;;;12.98;10.43;;;7.50;1.00;;;;;;5069286;28;20032;-87
2022/04/03 10:55:57;;;;;;;9.82;8.93;;;7.40;1.00;;;;;;5069435;28;20111;-87
2022/04/03 10:58:23;;;;;;;9.85;8.85;;;7.50;1.00;;;;;;5071006;28;20107;-87
2022/04/03 11:00:49;;;;;;;45.53;26.75;;;7.60;1.00;;;;;;5070620;28;20116;-87
2022/04/03 11:03:18;;;;;;;14.80;11.15;;;7.70;1.00;;;;;;5070532;28;20101;-87
2022/04/03 11:05:46;;;;;;;10.23;9.15;;;7.80;1.00;;;;;;5070581;28;20031;-87
2022/04/03 11:08:12;;;;;;;9.70;8.70;;;8.00;1.00;;;;;;5070355;28;20512;-87
2022/04/03 11:11:07;;;;;;;9.05;8.15;;;8.40;1.00;;;;;;5070701;28;20032;-87
2022/04/03 11:13:33;;;;;;;26.92;21.58;;;8.20;1.00;;;;;;5069858;28;20113;-88
2022/04/03 11:16:12;;;;;;;49.92;36.95;;;8.00;1.00;;;;;;5073445;28;20115;-87
2022/04/03 11:18:45;;;;;;;17.13;13.32;;;7.90;1.00;;;;;;5069616;28;20036;-87
2022/04/03 11:21:22;;;;;;;8.88;7.97;;;8.00;1.00;;;;;;5069667;28;20040;-87
2022/04/03 11:24:08;;;;;;;10.13;9.13;;;8.10;1.00;;;;;;5069696;28;20035;-88
2022/04/03 11:26:35;;;;;;;11.20;9.85;;;8.00;1.00;;;;;;5070633;28;20047;-87
2022/04/03 11:29:01;;;;;;;10.70;9.60;;;8.00;1.00;;;;;;5069905;28;20048;-87
2022/04/03 11:31:27;;;;;;;13.40;11.93;;;7.70;1.00;;;;;;5070252;28;20020;-86
2022/04/03 11:33:54;;;;;;;14.45;12.95;;;7.60;1.00;;;;;;5070690;28;20033;-87
2022/04/03 11:36:24;;;;;;;15.35;13.50;;;7.60;1.00;;;;;;5067697;28;20392;-87
2022/04/03 11:38:51;;;;;;;14.45;12.98;;;7.60;1.00;;;;;;5069942;28;20200;-87
2022/04/03 11:41:27;;;;;;;11.60;10.40;;;7.50;1.00;;;;;;5070244;28;20028;-87
2022/04/03 11:44:14;;;;;;;11.98;10.68;;;7.20;1.00;;;;;;5069837;28;20016;-87
2022/04/03 11:46:45;;;;;;;17.92;15.43;;;7.10;1.00;;;;;;5054247;28;20029;-87
2022/04/03 11:49:16;;;;;;;15.73;14.10;;;7.10;1.00;;;;;;5071881;28;20093;-87
2022/04/03 11:51:43;;;;;;;41.97;33.40;;;7.00;1.00;;;;;;5070530;28;20020;-87
2022/04/03 11:54:09;;;;;;;10.90;9.82;;;6.90;1.00;;;;;;5069662;28;20064;-87
2022/04/03 11:56:37;;;;;;;19.67;16.55;;;7.00;1.00;;;;;;5069536;28;20032;-87
2022/04/03 11:59:05;;;;;;;16.70;13.88;;;7.10;1.00;;;;;;5068632;28;20063;-87
2022/04/03 12:01:34;;;;;;;10.77;9.77;;;7.30;1.00;;;;;;5069654;28;20017;-87
2022/04/03 12:04:06;;;;;;;12.65;11.35;;;7.40;1.00;;;;;;5071676;28;20031;-87
2022/04/03 12:06:32;;;;;;;10.30;9.30;;;7.50;1.00;;;;;;5069473;28;20461;-87
2022/04/03 12:08:58;;;;;;;10.18;9.18;;;7.40;1.00;;;;;;5069590;28;20044;-87
2022/04/03 12:11:29;;;;;;;11.05;9.93;;;7.30;1.00;;;;;;5068263;28;20021;-87
2022/04/03 12:14:00;;;;;;;10.77;9.77;;;7.50;1.00;;;;;;5068195;28;20481;-87
2022/04/03 12:16:28;;;;;;;8.75;7.88;;;7.70;1.00;;;;;;5069481;28;20063;-87
2022/04/03 12:19:00;;;;;;;9.95;8.68;;;7.70;1.00;;;;;;5071193;28;20024;-87
2022/04/03 12:21:37;;;;;;;21.98;19.10;;;7.30;1.00;;;;;;5070136;28;20473;-87
2022/04/03 12:24:08;;;;;;;15.20;12.77;;;7.20;1.00;;;;;;5069357;28;20090;-87
2022/04/03 12:26:34;;;;;;;10.95;9.85;;;7.20;1.00;;;;;;5069251;28;20017;-87
2022/04/03 12:29:01;;;;;;;12.60;10.38;;;7.30;1.00;;;;;;5068971;28;20566;-87
2022/04/03 12:31:31;;;;;;;29.65;22.80;;;7.00;1.00;;;;;;5069947;28;20388;-87
2022/04/03 12:34:23;;;;;;;12.43;10.55;;;6.90;1.00;;;;;;5071027;28;20032;-88
2022/04/03 12:36:52;;;;;;;15.95;14.25;;;6.80;1.00;;;;;;5067659;28;20516;-87
2022/04/03 12:39:40;;;;;;;10.20;9.20;;;7.30;1.00;;;;;;5069211;28;20044;-87
2022/04/03 12:42:08;;;;;;;9.73;8.82;;;7.20;1.00;;;;;;5069495;28;20500;-87
2022/04/03 12:44:41;;;;;;;9.40;8.50;;;7.30;1.00;;;;;;5068913;28;20024;-87
2022/04/03 12:47:19;;;;;;;10.20;9.07;;;7.60;1.00;;;;;;5071625;28;20081;-87
2022/04/03 12:50:12;;;;;;;9.45;8.55;;;7.60;1.00;;;;;;5056634;28;20029;-87
2022/04/03 12:52:53;;;;;;;12.40;10.95;;;7.60;1.00;;;;;;5056099;28;20024;-87
2022/04/03 12:55:22;;;;;;;20.92;18.52;;;7.60;1.00;;;;;;5071440;28;20032;-87